createdAt,value
2022-12-20T00:00:19.922Z,43.78
2022-12-20T00:02:48.978Z,43.95
2022-12-20T00:05:17.144Z,42.88
2022-12-20T00:07:45.138Z,41.65
2022-12-20T00:10:13.581Z,41.30
2022-12-20T00:12:41.537Z,41.67
2022-12-20T00:15:10.035Z,42.53
2022-12-20T00:17:39.425Z,44.92
2022-12-20T00:20:09.213Z,44.10
2022-12-20T00:22:37.511Z,43.03
2022-12-20T00:25:06.031Z,44.25
2022-12-20T00:27:34.051Z,46.60
2022-12-20T00:30:01.965Z,42.78
2022-12-20T00:32:30.040Z,44.38
2022-12-20T00:34:59.379Z,45.22
2022-12-20T00:37:27.337Z,44.55
2022-12-20T00:39:55.280Z,43.08
2022-12-20T00:42:23.254Z,42.50
2022-12-20T00:44:51.246Z,42.42
2022-12-20T00:47:19.259Z,46.80
2022-12-20T00:49:47.315Z,46.58
2022-12-20T00:52:16.644Z,44.70
2022-12-20T00:54:44.714Z,43.72
2022-12-20T00:57:12.671Z,44.10
2022-12-20T00:59:40.716Z,42.38
2022-12-20T01:02:08.985Z,43.10
2022-12-20T01:04:37.072Z,42.00
2022-12-20T01:07:05.060Z,40.50
2022-12-20T01:09:34.516Z,44.22
2022-12-20T01:12:02.479Z,44.42
2022-12-20T01:14:30.436Z,42.80
2022-12-20T01:16:58.438Z,46.25
2022-12-20T01:19:26.623Z,48.85
2022-12-20T01:21:54.613Z,48.95
2022-12-20T01:24:22.611Z,47.10
2022-12-20T01:26:52.075Z,45.47
2022-12-20T01:29:20.093Z,43.75
2022-12-20T01:31:48.643Z,45.10
2022-12-20T01:34:16.580Z,39.72
2022-12-20T01:36:44.766Z,42.58
2022-12-20T01:39:15.977Z,40.92
2022-12-20T01:41:45.339Z,41.35
2022-12-20T01:45:05.406Z,40.22
2022-12-20T01:47:37.939Z,40.45
2022-12-20T01:50:08.871Z,39.55
2022-12-20T01:52:40.596Z,40.47
2022-12-20T01:55:11.787Z,41.08
2022-12-20T01:57:44.015Z,37.47
2022-12-20T02:00:13.315Z,41.03
2022-12-20T02:02:47.565Z,39.20
2022-12-20T02:05:17.347Z,38.55
2022-12-20T02:07:49.549Z,36.92
2022-12-20T02:10:18.776Z,38.28
2022-12-20T02:12:48.038Z,37.22
2022-12-20T02:15:33.119Z,39.15
2022-12-20T02:18:17.241Z,36.00
2022-12-20T02:21:13.726Z,37.83
2022-12-20T02:24:26.051Z,36.72
2022-12-20T02:27:25.795Z,37.75
2022-12-20T02:30:08.320Z,35.20
2022-12-20T02:32:42.393Z,37.80
2022-12-20T02:35:13.839Z,35.85
2022-12-20T02:37:52.892Z,37.40
2022-12-20T02:40:24.761Z,36.33
2022-12-20T02:42:56.344Z,36.63
2022-12-20T02:45:28.400Z,35.20
2022-12-20T02:47:59.972Z,36.55
2022-12-20T02:50:35.793Z,35.95
2022-12-20T02:53:04.590Z,36.75
2022-12-20T02:55:42.304Z,35.30
2022-12-20T02:58:16.732Z,38.70
2022-12-20T03:00:50.055Z,38.28
2022-12-20T03:03:24.431Z,35.08
2022-12-20T03:05:54.948Z,36.85
2022-12-20T03:08:24.392Z,37.53
2022-12-20T03:10:53.699Z,36.35
2022-12-20T03:13:22.674Z,38.45
2022-12-20T03:15:58.026Z,35.55
2022-12-20T03:18:25.977Z,37.78
2022-12-20T03:20:53.918Z,35.92
2022-12-20T03:23:22.435Z,35.95
2022-12-20T03:25:50.832Z,39.45
2022-12-20T03:28:28.539Z,40.67
2022-12-20T03:30:58.815Z,37.60
2022-12-20T03:33:27.010Z,41.65
2022-12-20T03:35:55.563Z,40.30
2022-12-20T03:38:23.560Z,41.38
2022-12-20T03:40:51.653Z,41.10
2022-12-20T03:43:22.512Z,39.72
2022-12-20T03:45:50.594Z,40.40
2022-12-20T03:48:20.760Z,40.95
2022-12-20T03:50:49.331Z,39.42
2022-12-20T03:53:17.334Z,39.38
2022-12-20T03:55:45.878Z,40.05
2022-12-20T03:58:14.861Z,40.80
2022-12-20T04:00:43.232Z,39.63
2022-12-20T04:03:35.753Z,39.78
2022-12-20T04:06:03.950Z,41.25
2022-12-20T04:08:32.051Z,42.75
2022-12-20T04:11:23.091Z,42.08
2022-12-20T04:13:56.630Z,43.45
2022-12-20T04:16:26.780Z,42.05
2022-12-20T04:18:57.864Z,40.08
2022-12-20T04:21:28.627Z,39.80
2022-12-20T04:23:59.481Z,40.42
2022-12-20T04:26:36.618Z,40.05
2022-12-20T04:29:05.098Z,41.08
2022-12-20T04:31:34.244Z,41.08
2022-12-20T04:34:03.733Z,40.22
2022-12-20T04:36:33.722Z,39.65
2022-12-20T04:39:04.777Z,40.17
2022-12-20T04:41:41.955Z,40.88
2022-12-20T04:44:12.964Z,39.38
2022-12-20T04:46:40.980Z,40.28
2022-12-20T04:49:14.766Z,39.45
2022-12-20T04:51:44.851Z,36.20
2022-12-20T04:54:13.312Z,38.05
2022-12-20T04:56:56.481Z,39.38
2022-12-20T04:59:25.479Z,39.03
2022-12-20T05:01:56.246Z,41.00
2022-12-20T05:04:41.919Z,38.95
2022-12-20T05:07:10.019Z,39.25
2022-12-20T05:09:39.890Z,41.47
2022-12-20T05:12:08.237Z,38.83
2022-12-20T05:14:36.566Z,41.65
2022-12-20T05:17:04.765Z,38.47
2022-12-20T05:19:32.876Z,38.22
2022-12-20T05:22:20.440Z,39.33
2022-12-20T05:25:21.030Z,39.00
2022-12-20T05:27:50.714Z,38.40
2022-12-20T05:30:20.144Z,36.83
2022-12-20T05:32:48.817Z,39.45
2022-12-20T05:35:17.205Z,38.00
2022-12-20T05:37:48.980Z,40.08
2022-12-20T05:40:20.170Z,36.85
2022-12-20T05:42:48.108Z,38.60
2022-12-20T05:45:16.354Z,36.63
2022-12-20T05:47:50.924Z,39.08
2022-12-20T05:50:19.453Z,37.65
2022-12-20T05:53:18.565Z,36.67
2022-12-20T05:55:53.282Z,37.13
2022-12-20T05:58:24.731Z,36.83
2022-12-20T06:01:02.822Z,39.45
2022-12-20T06:03:33.099Z,36.80
2022-12-20T06:06:08.669Z,36.88
2022-12-20T06:08:41.369Z,37.33
2022-12-20T06:11:12.432Z,38.85
2022-12-20T06:13:50.074Z,38.17
2022-12-20T06:16:20.544Z,39.17
2022-12-20T06:18:49.957Z,41.15
2022-12-20T06:21:18.594Z,38.53
2022-12-20T06:23:47.927Z,41.78
2022-12-20T06:26:19.002Z,41.13
2022-12-20T06:28:52.568Z,44.83
2022-12-20T06:31:27.206Z,43.15
2022-12-20T06:33:56.166Z,45.50
2022-12-20T06:36:27.436Z,44.17
2022-12-20T06:38:56.843Z,44.60
2022-12-20T06:41:25.027Z,44.35
2022-12-20T06:43:54.159Z,42.00
2022-12-20T06:46:22.248Z,40.85
2022-12-20T06:48:50.974Z,39.97
2022-12-20T06:51:19.717Z,40.10
2022-12-20T06:53:48.361Z,38.90
2022-12-20T06:56:17.736Z,36.72
2022-12-20T06:58:47.080Z,39.90
2022-12-20T07:01:15.138Z,37.83
2022-12-20T07:03:43.464Z,37.42
2022-12-20T07:06:11.456Z,38.97
2022-12-20T07:08:39.545Z,36.40
2022-12-20T07:11:08.489Z,41.05
2022-12-20T07:13:37.836Z,59.55
2022-12-20T07:16:06.755Z,55.25
2022-12-20T07:18:35.583Z,58.17
2022-12-20T07:21:05.249Z,55.15
2022-12-20T07:23:33.642Z,48.40
2022-12-20T07:26:03.788Z,49.45
2022-12-20T07:28:31.778Z,46.17
2022-12-20T07:31:03.871Z,49.08
2022-12-20T07:33:32.158Z,52.30
2022-12-20T07:36:04.104Z,53.65
2022-12-20T07:38:32.289Z,56.47
2022-12-20T07:41:00.335Z,55.30
2022-12-20T07:43:28.502Z,52.88
2022-12-20T07:45:57.208Z,54.35
2022-12-20T07:48:26.554Z,54.38
2022-12-20T07:51:00.251Z,49.30
2022-12-20T07:53:32.438Z,49.58
2022-12-20T07:56:03.273Z,42.03
2022-12-20T07:58:32.099Z,45.30
2022-12-20T08:01:00.228Z,43.22
2022-12-20T08:03:34.057Z,43.53
2022-12-20T08:06:04.110Z,43.08
2022-12-20T08:08:37.489Z,45.53
2022-12-20T08:11:08.259Z,47.65
2022-12-20T08:13:39.501Z,48.60
2022-12-20T08:16:12.340Z,47.67
2022-12-20T08:18:41.647Z,49.00
2022-12-20T08:21:10.644Z,44.70
2022-12-20T08:23:38.657Z,42.28
2022-12-20T08:26:06.930Z,44.10
2022-12-20T08:28:35.738Z,47.10
2022-12-20T08:31:04.073Z,45.10
2022-12-20T08:33:32.590Z,45.67
2022-12-20T08:36:03.477Z,46.30
2022-12-20T08:38:32.155Z,51.75
2022-12-20T08:41:05.056Z,50.35
2022-12-20T08:43:33.209Z,49.58
2022-12-20T08:46:01.774Z,53.65
2022-12-20T08:48:30.361Z,53.72
2022-12-20T08:50:59.186Z,58.38
2022-12-20T08:53:29.364Z,59.67
2022-12-20T08:56:05.320Z,74.90
2022-12-20T08:58:33.634Z,73.15
2022-12-20T09:01:06.376Z,67.47
2022-12-20T09:03:36.043Z,51.28
2022-12-20T09:06:07.629Z,44.35
2022-12-20T09:08:37.681Z,42.40
2022-12-20T09:11:06.840Z,42.20
2022-12-20T09:13:43.129Z,39.72
2022-12-20T09:16:13.963Z,38.75
2022-12-20T09:18:42.817Z,40.53
2022-12-20T09:21:11.822Z,40.30
2022-12-20T09:23:41.928Z,38.47
2022-12-20T09:26:13.394Z,38.92
2022-12-20T09:28:41.654Z,42.30
2022-12-20T09:31:12.664Z,40.00
2022-12-20T09:33:41.185Z,40.72
2022-12-20T09:36:13.084Z,44.70
2022-12-20T09:38:42.405Z,45.67
2022-12-20T09:41:23.295Z,46.10
2022-12-20T09:43:51.791Z,44.30
2022-12-20T09:46:20.222Z,44.30
2022-12-20T09:48:48.943Z,43.47
2022-12-20T09:51:33.620Z,43.85
2022-12-20T09:54:14.377Z,44.90
2022-12-20T09:56:47.824Z,41.42
2022-12-20T09:59:19.254Z,42.17
2022-12-20T10:01:50.060Z,43.47
2022-12-20T10:04:23.307Z,43.35
2022-12-20T10:07:06.018Z,41.40
2022-12-20T10:09:51.664Z,40.22
2022-12-20T10:12:30.934Z,43.28
2022-12-20T10:15:14.429Z,49.05
2022-12-20T10:17:56.031Z,49.58
2022-12-20T10:20:35.199Z,45.10
2022-12-20T10:23:08.792Z,43.80
2022-12-20T10:25:38.914Z,42.75
2022-12-20T10:28:16.322Z,42.55
2022-12-20T10:30:44.553Z,41.38
2022-12-20T10:33:20.358Z,40.45
2022-12-20T10:35:48.635Z,42.75
2022-12-20T10:38:17.666Z,43.33
2022-12-20T10:43:43.456Z,42.60
2022-12-20T10:46:12.064Z,41.72
2022-12-20T10:48:42.110Z,43.45
2022-12-20T10:51:17.228Z,41.35
2022-12-20T10:53:55.266Z,41.20
2022-12-20T10:56:27.531Z,43.03
2022-12-20T10:58:58.474Z,42.17
2022-12-20T11:01:30.602Z,40.88
2022-12-20T11:04:01.678Z,42.00
2022-12-20T11:06:41.367Z,41.80
2022-12-20T11:09:31.277Z,40.40
2022-12-20T11:12:03.146Z,42.30
2022-12-20T11:14:38.682Z,41.78
2022-12-20T11:17:22.902Z,42.47
2022-12-20T11:20:06.032Z,42.92
2022-12-20T11:22:48.779Z,41.47
2022-12-20T11:25:37.754Z,41.35
2022-12-20T11:28:21.784Z,38.45
2022-12-20T11:30:56.168Z,41.92
2022-12-20T11:33:38.928Z,42.35
2022-12-20T11:36:15.554Z,42.83
2022-12-20T11:38:45.962Z,41.72
2022-12-20T11:41:22.271Z,45.25
2022-12-20T11:44:28.938Z,43.58
2022-12-20T11:47:16.034Z,44.40
2022-12-20T11:50:03.855Z,40.45
2022-12-20T11:52:38.006Z,41.53
2022-12-20T11:55:17.846Z,44.40
2022-12-20T11:58:16.957Z,46.65
2022-12-20T12:00:45.486Z,48.70
2022-12-20T12:03:17.497Z,50.10
2022-12-20T12:05:48.308Z,50.97
2022-12-20T12:08:20.328Z,66.28
2022-12-20T12:10:55.489Z,62.80
2022-12-20T12:13:27.337Z,68.00
2022-12-20T12:16:02.604Z,63.80
2022-12-20T12:18:33.550Z,46.33
2022-12-20T12:21:09.776Z,47.90
2022-12-20T12:23:47.085Z,43.20
2022-12-20T12:26:21.177Z,42.67
2022-12-20T12:28:54.341Z,40.67
2022-12-20T12:31:29.541Z,42.65
2022-12-20T12:34:07.883Z,43.75
2022-12-20T12:37:06.875Z,44.13
2022-12-20T12:40:05.667Z,43.33
2022-12-20T12:43:03.917Z,43.00
2022-12-20T12:45:38.216Z,42.70
2022-12-20T12:48:14.846Z,45.33
2022-12-20T12:50:47.530Z,43.38
2022-12-20T12:53:18.267Z,45.30
2022-12-20T12:55:48.678Z,42.83
2022-12-20T12:58:34.679Z,44.45
2022-12-20T13:01:08.094Z,44.47
2022-12-20T13:03:43.601Z,45.00
2022-12-20T13:06:49.050Z,46.08
2022-12-20T13:09:23.282Z,43.05
2022-12-20T13:11:59.675Z,42.65
2022-12-20T13:14:50.872Z,42.67
2022-12-20T13:17:46.608Z,45.08
2022-12-20T13:20:23.235Z,43.65
2022-12-20T13:23:17.655Z,42.83
2022-12-20T13:25:47.699Z,43.17
2022-12-20T13:28:46.903Z,42.28
2022-12-20T13:31:42.030Z,41.70
2022-12-20T13:34:38.141Z,43.92
2022-12-20T13:37:27.179Z,44.70
2022-12-20T13:39:56.115Z,45.80
2022-12-20T13:42:34.041Z,48.70
2022-12-20T13:45:05.074Z,49.25
2022-12-20T13:47:44.121Z,48.47
2022-12-20T13:50:40.453Z,48.42
2022-12-20T13:53:18.852Z,48.15
2022-12-20T13:55:48.546Z,46.75
2022-12-20T13:58:19.195Z,47.38
2022-12-20T14:00:48.409Z,46.92
2022-12-20T14:03:23.268Z,43.58
2022-12-20T14:05:57.895Z,46.25
2022-12-20T14:08:31.488Z,41.90
2022-12-20T14:11:10.763Z,41.97
2022-12-20T14:13:39.184Z,43.90
2022-12-20T14:16:15.835Z,42.53
2022-12-20T14:18:48.627Z,45.72
2022-12-20T14:21:17.207Z,46.13
2022-12-20T14:23:50.694Z,44.10
2022-12-20T14:26:23.560Z,46.37
2022-12-20T14:28:53.027Z,47.20
2022-12-20T14:31:26.750Z,43.78
2022-12-20T14:34:04.337Z,47.08
2022-12-20T14:36:33.820Z,45.90
2022-12-20T14:39:22.297Z,48.10
2022-12-20T14:41:57.020Z,44.60
2022-12-20T14:44:27.144Z,46.47
2022-12-20T14:46:57.169Z,46.78
2022-12-20T14:49:28.015Z,45.53
2022-12-20T14:52:08.036Z,45.42
2022-12-20T14:57:40.452Z,46.10
2022-12-20T15:00:15.431Z,46.55
2022-12-20T15:02:47.749Z,47.03
2022-12-20T15:05:52.612Z,47.22
2022-12-20T15:08:23.271Z,46.90
2022-12-20T15:10:56.125Z,45.97
2022-12-20T15:13:31.490Z,45.58
2022-12-20T15:16:01.761Z,43.95
2022-12-20T15:18:29.952Z,45.05
2022-12-20T15:21:06.829Z,51.58
2022-12-20T15:23:35.426Z,66.25
2022-12-20T15:26:04.810Z,54.13
2022-12-20T15:28:33.577Z,57.25
2022-12-20T15:31:01.560Z,60.33
2022-12-20T15:33:33.236Z,53.15
2022-12-20T15:36:01.279Z,48.28
2022-12-20T15:38:54.727Z,49.58
2022-12-20T15:41:23.161Z,44.72
2022-12-20T15:43:54.823Z,46.00
2022-12-20T15:46:22.861Z,50.40
2022-12-20T15:48:50.843Z,56.08
2022-12-20T15:51:29.720Z,48.40
2022-12-20T15:53:57.799Z,52.47
2022-12-20T15:56:28.121Z,44.85
2022-12-20T15:58:56.696Z,45.13
2022-12-20T16:01:33.406Z,43.90
2022-12-20T16:04:09.164Z,43.85
2022-12-20T16:06:37.127Z,41.08
2022-12-20T16:09:05.481Z,41.97
2022-12-20T16:11:35.527Z,45.92
2022-12-20T16:14:03.397Z,41.30
2022-12-20T16:16:33.438Z,39.08
2022-12-20T16:19:01.616Z,41.80
2022-12-20T16:21:33.413Z,40.40
2022-12-20T16:24:01.833Z,41.95
2022-12-20T16:26:30.522Z,43.88
2022-12-20T16:29:00.465Z,42.58
2022-12-20T16:31:31.377Z,47.20
2022-12-20T16:34:01.390Z,47.85
2022-12-20T16:36:29.484Z,47.00
2022-12-20T16:38:57.456Z,46.40
2022-12-20T16:41:27.430Z,67.15
2022-12-20T16:43:56.737Z,52.38
2022-12-20T16:46:28.364Z,59.72
2022-12-20T16:48:57.241Z,56.83
2022-12-20T16:51:27.321Z,58.28
2022-12-20T16:56:44.983Z,62.42
2022-12-20T16:59:22.565Z,63.17
2022-12-20T17:01:54.418Z,55.63
2022-12-20T17:04:26.616Z,60.85
2022-12-20T17:06:54.560Z,57.00
2022-12-20T17:12:15.010Z,52.50
2022-12-20T17:14:43.063Z,49.05
2022-12-20T17:17:12.471Z,49.63
2022-12-20T17:19:40.466Z,48.17
2022-12-20T17:24:54.378Z,44.35
2022-12-20T17:27:22.272Z,45.38
2022-12-20T17:29:52.052Z,45.30
2022-12-20T17:32:22.675Z,45.28
2022-12-20T17:34:50.943Z,48.85
2022-12-20T17:37:18.877Z,53.22
2022-12-20T17:39:46.819Z,53.50
2022-12-20T17:42:15.242Z,52.15
2022-12-20T17:44:43.667Z,49.40
2022-12-20T17:47:12.242Z,52.30
2022-12-20T17:49:41.589Z,47.55
2022-12-20T17:52:14.986Z,45.10
2022-12-20T17:54:43.296Z,43.90
2022-12-20T17:57:14.803Z,47.83
2022-12-20T17:59:43.346Z,45.53
2022-12-20T18:02:21.620Z,45.80
2022-12-20T18:04:51.810Z,46.95
2022-12-20T18:07:19.865Z,46.10
2022-12-20T18:09:48.807Z,45.05
2022-12-20T18:12:16.974Z,47.33
2022-12-20T18:14:45.014Z,50.78
2022-12-20T18:17:13.278Z,47.33
2022-12-20T18:19:41.305Z,47.90
2022-12-20T18:22:10.554Z,49.85
2022-12-20T18:24:38.560Z,62.45
2022-12-20T18:27:06.606Z,76.03
2022-12-20T18:29:34.596Z,73.47
2022-12-20T18:32:02.574Z,66.53
2022-12-20T18:34:30.604Z,73.82
2022-12-20T18:36:58.656Z,66.80
2022-12-20T18:39:28.002Z,64.45
2022-12-20T18:41:55.977Z,60.47
2022-12-20T18:44:23.960Z,61.28
2022-12-20T18:46:51.894Z,64.75
2022-12-20T18:49:19.932Z,62.10
2022-12-20T18:51:47.821Z,63.17
2022-12-20T18:54:16.776Z,63.85
2022-12-20T18:56:46.017Z,56.13
2022-12-20T18:59:14.283Z,52.05
2022-12-20T19:01:43.582Z,53.75
2022-12-20T19:04:12.195Z,52.90
2022-12-20T19:06:41.020Z,50.72
2022-12-20T19:09:11.879Z,59.80
2022-12-20T19:11:40.662Z,61.60
2022-12-20T19:14:10.496Z,56.92
2022-12-20T19:16:39.858Z,50.38
2022-12-20T19:19:09.351Z,44.47
2022-12-20T19:21:41.540Z,42.92
2022-12-20T19:24:09.736Z,44.60
2022-12-20T19:26:38.974Z,43.92
2022-12-20T19:29:09.108Z,48.67
2022-12-20T19:31:38.489Z,47.95
2022-12-20T19:34:08.830Z,48.60
2022-12-20T19:36:40.437Z,48.53
2022-12-20T19:39:13.651Z,51.25
2022-12-20T19:41:41.530Z,53.63
2022-12-20T19:44:10.787Z,51.42
2022-12-20T19:46:39.151Z,54.53
2022-12-20T19:49:07.033Z,51.58
2022-12-20T19:51:34.980Z,49.75
2022-12-20T19:54:03.037Z,46.72
2022-12-20T19:56:34.940Z,43.22
2022-12-20T19:59:03.651Z,45.10
2022-12-20T20:01:33.038Z,44.58
2022-12-20T20:04:01.746Z,41.47
2022-12-20T20:06:29.865Z,42.25
2022-12-20T20:08:59.745Z,43.97
2022-12-20T20:11:28.912Z,42.80
2022-12-20T20:13:56.868Z,43.85
2022-12-20T20:16:24.923Z,43.22
2022-12-20T20:18:55.381Z,44.08
2022-12-20T20:21:24.497Z,46.53
2022-12-20T20:23:54.279Z,45.40
2022-12-20T20:26:24.534Z,45.60
2022-12-20T20:28:53.145Z,43.65
2022-12-20T20:31:22.080Z,42.50
2022-12-20T20:33:50.481Z,46.22
2022-12-20T20:36:22.221Z,45.97
2022-12-20T20:38:50.867Z,43.53
2022-12-20T20:41:19.451Z,45.40
2022-12-20T20:43:47.489Z,44.13
2022-12-20T20:46:17.154Z,43.22
2022-12-20T20:48:46.076Z,40.40
2022-12-20T20:51:14.375Z,44.22
2022-12-20T20:53:43.884Z,45.90
2022-12-20T20:56:12.229Z,43.90
2022-12-20T20:58:43.253Z,45.58
2022-12-20T21:01:12.036Z,46.30
2022-12-20T21:03:40.415Z,45.05
2022-12-20T21:08:58.722Z,40.72
2022-12-20T21:11:26.753Z,42.15
2022-12-20T21:13:55.265Z,39.92
2022-12-20T21:16:24.398Z,40.50
2022-12-20T21:18:52.811Z,39.83
2022-12-20T21:21:21.237Z,39.25
2022-12-20T21:23:49.345Z,43.28
2022-12-20T21:26:21.023Z,40.88
2022-12-20T21:28:49.671Z,42.17
2022-12-20T21:31:19.580Z,42.33
2022-12-20T21:33:47.679Z,42.38
2022-12-20T21:36:17.504Z,42.22
2022-12-20T21:38:48.711Z,44.85
2022-12-20T21:41:18.572Z,44.90
2022-12-20T21:43:46.464Z,45.20
2022-12-20T21:46:14.444Z,47.97
2022-12-20T21:48:44.020Z,57.25
2022-12-20T21:51:13.839Z,60.72
2022-12-20T21:53:43.471Z,61.97
2022-12-20T21:56:11.651Z,58.60
2022-12-20T21:58:41.013Z,53.40
2022-12-20T22:01:10.185Z,56.25
2022-12-20T22:03:38.782Z,52.30
2022-12-20T22:06:07.256Z,65.30
2022-12-20T22:08:35.551Z,63.38
2022-12-20T22:11:06.192Z,72.13
2022-12-20T22:13:41.229Z,67.65
2022-12-20T22:16:14.192Z,63.90
2022-12-20T22:18:43.514Z,63.58
2022-12-20T22:21:15.669Z,64.15
2022-12-20T22:23:44.719Z,60.08
2022-12-20T22:26:14.604Z,55.50
2022-12-20T22:28:47.055Z,59.97
2022-12-20T22:31:17.842Z,56.13
2022-12-20T22:33:46.233Z,59.20
2022-12-20T22:36:15.704Z,57.20
2022-12-20T22:38:44.688Z,58.55
2022-12-20T22:41:14.743Z,56.80
2022-12-20T22:43:44.467Z,53.70
2022-12-20T22:46:13.759Z,52.05
2022-12-20T22:48:44.046Z,52.95
2022-12-20T22:51:13.621Z,51.30
2022-12-20T22:53:41.767Z,57.53
2022-12-20T22:56:10.304Z,54.70
2022-12-20T22:58:39.220Z,55.00
2022-12-20T23:01:09.572Z,56.85
2022-12-20T23:03:38.042Z,53.05
2022-12-20T23:06:09.097Z,52.85
2022-12-20T23:08:38.306Z,51.00
2022-12-20T23:11:31.392Z,49.90
2022-12-20T23:14:16.922Z,45.30
2022-12-20T23:16:45.113Z,41.28
2022-12-20T23:19:13.361Z,45.17
2022-12-20T23:22:00.271Z,44.47
2022-12-20T23:24:28.156Z,41.53
2022-12-20T23:26:56.050Z,41.83
2022-12-20T23:29:24.306Z,42.28
2022-12-20T23:31:52.380Z,44.78
2022-12-20T23:34:20.504Z,45.00
2022-12-20T23:36:49.721Z,42.33
2022-12-20T23:39:17.583Z,42.13
2022-12-20T23:41:46.255Z,42.83
2022-12-20T23:44:14.195Z,44.92
2022-12-20T23:46:42.084Z,44.25
2022-12-20T23:49:10.074Z,43.38
2022-12-20T23:51:37.964Z,38.20
2022-12-20T23:54:07.358Z,37.47
2022-12-20T23:56:35.241Z,37.80
2022-12-20T23:59:03.331Z,40.15
